sensor_id;sensor_type;location;lat;lon;timestamp;temperature;humidity
19037;DHT22;9651;49.138;8.900;2022-09-01T00:00:12;17.30;99.90
19037;DHT22;9651;49.138;8.900;2022-09-01T00:04:17;17.30;99.90
19037;DHT22;9651;49.138;8.900;2022-09-01T00:08:20;17.30;99.90
19037;DHT22;9651;49.138;8.900;2022-09-01T00:12:23;17.30;99.90
19037;DHT22;9651;49.138;8.900;2022-09-01T00:16:27;17.30;99.90
19037;DHT22;9651;49.138;8.900;2022-09-01T00:20:29;17.30;99.90
19037;DHT22;9651;49.138;8.900;2022-09-01T00:24:32;17.30;99.90
19037;DHT22;9651;49.138;8.900;2022-09-01T00:28:34;17.30;99.90
19037;DHT22;9651;49.138;8.900;2022-09-01T00:32:38;17.20;99.90
19037;DHT22;9651;49.138;8.900;2022-09-01T00:36:40;17.10;99.90
19037;DHT22;9651;49.138;8.900;2022-09-01T00:40:42;17.10;99.90
19037;DHT22;9651;49.138;8.900;2022-09-01T00:44:44;17.10;99.90
19037;DHT22;9651;49.138;8.900;2022-09-01T00:48:51;17.10;99.90
19037;DHT22;9651;49.138;8.900;2022-09-01T00:52:54;17.10;99.90
19037;DHT22;9651;49.138;8.900;2022-09-01T00:56:57;17.10;99.90
19037;DHT22;9651;49.138;8.900;2022-09-01T01:00:59;17.00;99.90
19037;DHT22;9651;49.138;8.900;2022-09-01T01:05:03;17.00;99.90
19037;DHT22;9651;49.138;8.900;2022-09-01T01:09:06;17.00;99.90
19037;DHT22;9651;49.138;8.900;2022-09-01T01:13:09;17.00;99.90
19037;DHT22;9651;49.138;8.900;2022-09-01T01:17:12;17.00;99.90
19037;DHT22;9651;49.138;8.900;2022-09-01T01:21:18;16.90;99.90
19037;DHT22;9651;49.138;8.900;2022-09-01T01:25:45;16.80;99.90
19037;DHT22;9651;49.138;8.900;2022-09-01T01:29:50;16.80;99.90
19037;DHT22;9651;49.138;8.900;2022-09-01T01:33:55;16.80;99.90
19037;DHT22;9651;49.138;8.900;2022-09-01T01:37:59;16.80;99.90
19037;DHT22;9651;49.138;8.900;2022-09-01T01:42:03;16.80;99.90
19037;DHT22;9651;49.138;8.900;2022-09-01T01:46:09;16.70;99.90
19037;DHT22;9651;49.138;8.900;2022-09-01T01:50:13;16.70;99.90
19037;DHT22;9651;49.138;8.900;2022-09-01T01:54:17;16.60;99.90
19037;DHT22;9651;49.138;8.900;2022-09-01T01:58:22;16.50;99.90
19037;DHT22;9651;49.138;8.900;2022-09-01T02:02:25;16.50;99.90
19037;DHT22;9651;49.138;8.900;2022-09-01T02:06:32;16.40;99.90
19037;DHT22;9651;49.138;8.900;2022-09-01T02:10:37;16.40;99.90
19037;DHT22;9651;49.138;8.900;2022-09-01T02:14:42;16.30;99.90
19037;DHT22;9651;49.138;8.900;2022-09-01T02:18:46;16.30;99.90
19037;DHT22;9651;49.138;8.900;2022-09-01T02:22:48;16.30;99.90
19037;DHT22;9651;49.138;8.900;2022-09-01T02:26:51;16.30;99.90
19037;DHT22;9651;49.138;8.900;2022-09-01T02:30:55;16.30;99.90
19037;DHT22;9651;49.138;8.900;2022-09-01T02:34:59;16.10;99.90
19037;DHT22;9651;49.138;8.900;2022-09-01T02:39:02;16.00;99.90
19037;DHT22;9651;49.138;8.900;2022-09-01T02:43:04;16.00;99.90
19037;DHT22;9651;49.138;8.900;2022-09-01T02:47:07;16.00;99.90
19037;DHT22;9651;49.138;8.900;2022-09-01T02:51:11;16.10;99.90
19037;DHT22;9651;49.138;8.900;2022-09-01T02:55:15;16.10;99.90
19037;DHT22;9651;49.138;8.900;2022-09-01T02:59:22;16.10;99.90
19037;DHT22;9651;49.138;8.900;2022-09-01T03:03:25;16.10;99.90
19037;DHT22;9651;49.138;8.900;2022-09-01T03:07:28;16.10;99.90
19037;DHT22;9651;49.138;8.900;2022-09-01T03:11:32;16.10;99.90
19037;DHT22;9651;49.138;8.900;2022-09-01T03:15:36;16.10;99.90
19037;DHT22;9651;49.138;8.900;2022-09-01T03:19:40;16.10;99.90
19037;DHT22;9651;49.138;8.900;2022-09-01T03:23:46;16.00;99.90
19037;DHT22;9651;49.138;8.900;2022-09-01T03:27:48;16.00;99.90
19037;DHT22;9651;49.138;8.900;2022-09-01T03:31:50;16.00;99.90
19037;DHT22;9651;49.138;8.900;2022-09-01T03:35:54;15.90;99.90
19037;DHT22;9651;49.138;8.900;2022-09-01T03:39:56;16.00;99.90
19037;DHT22;9651;49.138;8.900;2022-09-01T03:43:59;15.90;99.90
19037;DHT22;9651;49.138;8.900;2022-09-01T03:48:04;15.90;99.90
19037;DHT22;9651;49.138;8.900;2022-09-01T03:52:10;15.80;99.90
19037;DHT22;9651;49.138;8.900;2022-09-01T03:56:13;15.80;99.90
19037;DHT22;9651;49.138;8.900;2022-09-01T04:00:16;15.80;99.90
19037;DHT22;9651;49.138;8.900;2022-09-01T04:04:20;15.90;99.90
19037;DHT22;9651;49.138;8.900;2022-09-01T04:08:25;15.80;99.90
19037;DHT22;9651;49.138;8.900;2022-09-01T04:12:32;15.80;99.90
19037;DHT22;9651;49.138;8.900;2022-09-01T04:16:34;15.80;99.90
19037;DHT22;9651;49.138;8.900;2022-09-01T04:20:55;15.80;99.90
19037;DHT22;9651;49.138;8.900;2022-09-01T04:25:00;15.80;99.90
19037;DHT22;9651;49.138;8.900;2022-09-01T04:29:02;15.70;99.90
19037;DHT22;9651;49.138;8.900;2022-09-01T04:33:05;15.70;99.90
19037;DHT22;9651;49.138;8.900;2022-09-01T04:37:08;15.70;99.90
19037;DHT22;9651;49.138;8.900;2022-09-01T04:41:14;15.70;99.90
19037;DHT22;9651;49.138;8.900;2022-09-01T04:45:17;15.70;99.90
19037;DHT22;9651;49.138;8.900;2022-09-01T04:49:29;15.70;99.90
19037;DHT22;9651;49.138;8.900;2022-09-01T04:53:33;15.70;99.90
19037;DHT22;9651;49.138;8.900;2022-09-01T04:57:37;15.70;99.90
19037;DHT22;9651;49.138;8.900;2022-09-01T05:01:39;15.70;99.90
19037;DHT22;9651;49.138;8.900;2022-09-01T05:05:46;15.70;99.90
19037;DHT22;9651;49.138;8.900;2022-09-01T05:09:48;15.70;99.90
19037;DHT22;9651;49.138;8.900;2022-09-01T05:14:20;15.70;99.90
19037;DHT22;9651;49.138;8.900;2022-09-01T05:18:23;15.70;99.90
19037;DHT22;9651;49.138;8.900;2022-09-01T05:22:25;15.80;99.90
19037;DHT22;9651;49.138;8.900;2022-09-01T05:26:32;15.80;99.90
19037;DHT22;9651;49.138;8.900;2022-09-01T05:30:40;15.90;99.90
19037;DHT22;9651;49.138;8.900;2022-09-01T05:34:42;16.00;99.90
19037;DHT22;9651;49.138;8.900;2022-09-01T05:38:46;16.10;99.90
19037;DHT22;9651;49.138;8.900;2022-09-01T05:42:48;16.40;99.90
19037;DHT22;9651;49.138;8.900;2022-09-01T05:46:53;16.60;99.90
19037;DHT22;9651;49.138;8.900;2022-09-01T05:50:55;16.80;99.90
19037;DHT22;9651;49.138;8.900;2022-09-01T05:55:00;17.10;99.90
19037;DHT22;9651;49.138;8.900;2022-09-01T05:59:03;17.40;99.90
19037;DHT22;9651;49.138;8.900;2022-09-01T06:03:07;17.80;99.90
19037;DHT22;9651;49.138;8.900;2022-09-01T06:07:12;18.10;99.90
19037;DHT22;9651;49.138;8.900;2022-09-01T06:11:19;18.30;99.90
19037;DHT22;9651;49.138;8.900;2022-09-01T06:15:24;18.40;99.90
19037;DHT22;9651;49.138;8.900;2022-09-01T06:19:31;18.70;99.90
19037;DHT22;9651;49.138;8.900;2022-09-01T06:23:33;18.80;99.90
19037;DHT22;9651;49.138;8.900;2022-09-01T06:27:36;19.00;99.90
19037;DHT22;9651;49.138;8.900;2022-09-01T06:31:44;19.40;99.90
19037;DHT22;9651;49.138;8.900;2022-09-01T06:35:52;19.70;99.90
19037;DHT22;9651;49.138;8.900;2022-09-01T06:39:56;20.00;99.90
19037;DHT22;9651;49.138;8.900;2022-09-01T06:43:58;20.20;99.90
19037;DHT22;9651;49.138;8.900;2022-09-01T06:48:01;20.10;99.90
19037;DHT22;9651;49.138;8.900;2022-09-01T06:52:06;20.30;99.90
19037;DHT22;9651;49.138;8.900;2022-09-01T06:56:09;20.60;99.90
19037;DHT22;9651;49.138;8.900;2022-09-01T07:00:14;20.50;99.90
19037;DHT22;9651;49.138;8.900;2022-09-01T07:04:21;20.50;99.90
19037;DHT22;9651;49.138;8.900;2022-09-01T07:08:29;20.80;99.90
19037;DHT22;9651;49.138;8.900;2022-09-01T07:12:40;20.70;99.90
19037;DHT22;9651;49.138;8.900;2022-09-01T07:16:45;21.30;99.90
19037;DHT22;9651;49.138;8.900;2022-09-01T07:20:48;21.00;99.90
19037;DHT22;9651;49.138;8.900;2022-09-01T07:24:53;20.90;99.90
19037;DHT22;9651;49.138;8.900;2022-09-01T07:29:29;21.60;99.90
19037;DHT22;9651;49.138;8.900;2022-09-01T07:33:33;22.20;99.90
19037;DHT22;9651;49.138;8.900;2022-09-01T07:37:36;23.00;99.90
19037;DHT22;9651;49.138;8.900;2022-09-01T07:41:40;23.10;99.90
19037;DHT22;9651;49.138;8.900;2022-09-01T07:46:03;23.10;99.90
19037;DHT22;9651;49.138;8.900;2022-09-01T07:50:07;22.70;99.90
19037;DHT22;9651;49.138;8.900;2022-09-01T07:54:12;22.70;99.90
19037;DHT22;9651;49.138;8.900;2022-09-01T07:58:16;22.50;99.90
19037;DHT22;9651;49.138;8.900;2022-09-01T08:02:21;22.70;99.90
19037;DHT22;9651;49.138;8.900;2022-09-01T08:06:27;22.80;99.90
19037;DHT22;9651;49.138;8.900;2022-09-01T08:10:31;22.90;99.90
19037;DHT22;9651;49.138;8.900;2022-09-01T08:14:34;22.60;99.90
19037;DHT22;9651;49.138;8.900;2022-09-01T08:18:37;23.00;99.90
19037;DHT22;9651;49.138;8.900;2022-09-01T08:22:39;23.50;99.90
19037;DHT22;9651;49.138;8.900;2022-09-01T08:26:50;23.70;99.90
19037;DHT22;9651;49.138;8.900;2022-09-01T08:30:54;24.40;99.90
19037;DHT22;9651;49.138;8.900;2022-09-01T08:34:58;24.50;99.90
19037;DHT22;9651;49.138;8.900;2022-09-01T08:39:00;24.20;99.90
19037;DHT22;9651;49.138;8.900;2022-09-01T08:43:12;23.90;99.90
19037;DHT22;9651;49.138;8.900;2022-09-01T08:47:18;24.20;99.90
19037;DHT22;9651;49.138;8.900;2022-09-01T08:51:29;24.30;99.90
19037;DHT22;9651;49.138;8.900;2022-09-01T08:55:36;24.30;99.90
19037;DHT22;9651;49.138;8.900;2022-09-01T08:59:40;24.50;99.90
19037;DHT22;9651;49.138;8.900;2022-09-01T09:04:07;24.40;99.90
19037;DHT22;9651;49.138;8.900;2022-09-01T09:08:24;25.20;99.90
19037;DHT22;9651;49.138;8.900;2022-09-01T09:12:41;25.80;99.90
19037;DHT22;9651;49.138;8.900;2022-09-01T09:16:53;25.50;99.90
19037;DHT22;9651;49.138;8.900;2022-09-01T09:21:04;25.30;99.90
19037;DHT22;9651;49.138;8.900;2022-09-01T09:25:09;25.80;99.90
19037;DHT22;9651;49.138;8.900;2022-09-01T09:29:12;25.80;99.90
19037;DHT22;9651;49.138;8.900;2022-09-01T09:33:34;25.90;99.90
19037;DHT22;9651;49.138;8.900;2022-09-01T09:37:37;25.60;99.90
19037;DHT22;9651;49.138;8.900;2022-09-01T09:41:40;26.40;99.90
19037;DHT22;9651;49.138;8.900;2022-09-01T09:45:42;27.60;99.90
19037;DHT22;9651;49.138;8.900;2022-09-01T09:49:44;27.20;99.90
19037;DHT22;9651;49.138;8.900;2022-09-01T09:53:48;26.70;99.90
19037;DHT22;9651;49.138;8.900;2022-09-01T09:57:53;27.30;99.90
19037;DHT22;9651;49.138;8.900;2022-09-01T10:01:57;26.40;99.90
19037;DHT22;9651;49.138;8.900;2022-09-01T10:06:00;26.10;99.90
19037;DHT22;9651;49.138;8.900;2022-09-01T10:10:06;26.00;99.90
19037;DHT22;9651;49.138;8.900;2022-09-01T10:14:12;25.60;99.90
19037;DHT22;9651;49.138;8.900;2022-09-01T10:18:18;25.50;99.90
19037;DHT22;9651;49.138;8.900;2022-09-01T10:22:21;24.80;99.90
19037;DHT22;9651;49.138;8.900;2022-09-01T10:26:31;24.40;99.90
19037;DHT22;9651;49.138;8.900;2022-09-01T10:30:36;24.50;99.90
19037;DHT22;9651;49.138;8.900;2022-09-01T10:34:42;24.00;99.90
19037;DHT22;9651;49.138;8.900;2022-09-01T10:38:46;23.70;99.90
19037;DHT22;9651;49.138;8.900;2022-09-01T10:42:53;23.70;99.90
19037;DHT22;9651;49.138;8.900;2022-09-01T10:46:59;24.10;99.90
19037;DHT22;9651;49.138;8.900;2022-09-01T10:56:00;25.50;99.90
19037;DHT22;9651;49.138;8.900;2022-09-01T11:00:45;25.50;99.90
19037;DHT22;9651;49.138;8.900;2022-09-01T11:05:17;27.20;99.90
19037;DHT22;9651;49.138;8.900;2022-09-01T11:09:25;28.70;98.80
19037;DHT22;9651;49.138;8.900;2022-09-01T11:13:36;28.40;98.70
19037;DHT22;9651;49.138;8.900;2022-09-01T11:17:55;27.50;99.10
19037;DHT22;9651;49.138;8.900;2022-09-01T11:26:45;26.90;99.30
19037;DHT22;9651;49.138;8.900;2022-09-01T11:30:50;26.40;99.50
19037;DHT22;9651;49.138;8.900;2022-09-01T11:34:56;27.00;99.00
19037;DHT22;9651;49.138;8.900;2022-09-01T11:39:06;28.10;98.10
19037;DHT22;9651;49.138;8.900;2022-09-01T11:43:11;30.20;95.40
19037;DHT22;9651;49.138;8.900;2022-09-01T11:47:17;30.20;93.10
19037;DHT22;9651;49.138;8.900;2022-09-01T11:51:21;29.80;93.40
19037;DHT22;9651;49.138;8.900;2022-09-01T11:55:31;30.10;92.40
19037;DHT22;9651;49.138;8.900;2022-09-01T11:59:35;31.80;90.50
19037;DHT22;9651;49.138;8.900;2022-09-01T12:03:37;31.80;90.00
19037;DHT22;9651;49.138;8.900;2022-09-01T12:07:43;30.70;90.60
19037;DHT22;9651;49.138;8.900;2022-09-01T12:11:45;30.70;89.70
19037;DHT22;9651;49.138;8.900;2022-09-01T12:15:52;30.80;90.50
19037;DHT22;9651;49.138;8.900;2022-09-01T12:19:55;32.90;86.90
19037;DHT22;9651;49.138;8.900;2022-09-01T12:24:12;33.60;81.60
19037;DHT22;9651;49.138;8.900;2022-09-01T12:28:15;33.80;78.80
19037;DHT22;9651;49.138;8.900;2022-09-01T12:32:17;34.40;74.20
19037;DHT22;9651;49.138;8.900;2022-09-01T12:36:23;33.90;75.90
19037;DHT22;9651;49.138;8.900;2022-09-01T12:40:31;33.30;75.10
19037;DHT22;9651;49.138;8.900;2022-09-01T12:44:41;31.00;78.10
19037;DHT22;9651;49.138;8.900;2022-09-01T12:48:46;30.40;80.20
19037;DHT22;9651;49.138;8.900;2022-09-01T12:52:54;29.30;81.70
19037;DHT22;9651;49.138;8.900;2022-09-01T12:56:59;28.50;83.20
19037;DHT22;9651;49.138;8.900;2022-09-01T13:01:03;28.00;84.40
19037;DHT22;9651;49.138;8.900;2022-09-01T13:05:21;27.20;86.00
19037;DHT22;9651;49.138;8.900;2022-09-01T13:09:24;27.90;86.90
19037;DHT22;9651;49.138;8.900;2022-09-01T13:13:27;31.30;82.00
19037;DHT22;9651;49.138;8.900;2022-09-01T13:17:30;33.40;78.90
19037;DHT22;9651;49.138;8.900;2022-09-01T13:21:33;33.20;75.50
19037;DHT22;9651;49.138;8.900;2022-09-01T13:25:35;32.10;75.80
19037;DHT22;9651;49.138;8.900;2022-09-01T13:29:38;33.00;75.30
19037;DHT22;9651;49.138;8.900;2022-09-01T13:33:41;33.30;73.40
19037;DHT22;9651;49.138;8.900;2022-09-01T13:37:43;32.90;73.00
19037;DHT22;9651;49.138;8.900;2022-09-01T13:41:45;31.50;74.70
19037;DHT22;9651;49.138;8.900;2022-09-01T13:45:49;29.90;77.10
19037;DHT22;9651;49.138;8.900;2022-09-01T13:49:50;28.80;79.40
19037;DHT22;9651;49.138;8.900;2022-09-01T13:53:53;28.60;80.60
19037;DHT22;9651;49.138;8.900;2022-09-01T13:57:55;28.20;81.10
19037;DHT22;9651;49.138;8.900;2022-09-01T14:01:59;27.50;83.20
19037;DHT22;9651;49.138;8.900;2022-09-01T14:06:02;27.10;83.80
19037;DHT22;9651;49.138;8.900;2022-09-01T14:10:05;27.00;85.00
19037;DHT22;9651;49.138;8.900;2022-09-01T14:14:08;26.70;85.10
19037;DHT22;9651;49.138;8.900;2022-09-01T14:18:11;26.60;86.00
19037;DHT22;9651;49.138;8.900;2022-09-01T14:22:15;26.80;86.00
19037;DHT22;9651;49.138;8.900;2022-09-01T14:26:17;26.90;85.50
19037;DHT22;9651;49.138;8.900;2022-09-01T14:30:21;27.10;83.20
19037;DHT22;9651;49.138;8.900;2022-09-01T14:34:24;27.10;85.40
19037;DHT22;9651;49.138;8.900;2022-09-01T14:38:26;27.00;86.50
19037;DHT22;9651;49.138;8.900;2022-09-01T14:42:30;26.70;86.90
19037;DHT22;9651;49.138;8.900;2022-09-01T14:46:32;26.70;86.70
19037;DHT22;9651;49.138;8.900;2022-09-01T14:50:41;26.50;86.50
19037;DHT22;9651;49.138;8.900;2022-09-01T14:54:43;26.10;85.90
19037;DHT22;9651;49.138;8.900;2022-09-01T14:58:47;25.80;86.70
19037;DHT22;9651;49.138;8.900;2022-09-01T15:02:49;25.70;86.90
19037;DHT22;9651;49.138;8.900;2022-09-01T15:06:53;25.50;87.40
19037;DHT22;9651;49.138;8.900;2022-09-01T15:10:57;25.50;87.60
19037;DHT22;9651;49.138;8.900;2022-09-01T15:15:00;25.30;88.20
19037;DHT22;9651;49.138;8.900;2022-09-01T15:19:02;25.40;87.60
19037;DHT22;9651;49.138;8.900;2022-09-01T15:23:06;25.50;88.30
19037;DHT22;9651;49.138;8.900;2022-09-01T15:27:08;25.50;89.00
19037;DHT22;9651;49.138;8.900;2022-09-01T15:31:15;25.90;89.20
19037;DHT22;9651;49.138;8.900;2022-09-01T15:35:18;26.40;88.00
19037;DHT22;9651;49.138;8.900;2022-09-01T15:39:21;28.30;85.20
19037;DHT22;9651;49.138;8.900;2022-09-01T15:43:23;29.80;81.40
19037;DHT22;9651;49.138;8.900;2022-09-01T15:47:25;30.20;79.80
19037;DHT22;9651;49.138;8.900;2022-09-01T15:51:30;30.20;79.40
19037;DHT22;9651;49.138;8.900;2022-09-01T15:55:39;30.00;79.70
19037;DHT22;9651;49.138;8.900;2022-09-01T15:59:41;30.10;79.30
19037;DHT22;9651;49.138;8.900;2022-09-01T16:03:47;28.90;80.50
19037;DHT22;9651;49.138;8.900;2022-09-01T16:07:49;27.80;81.70
19037;DHT22;9651;49.138;8.900;2022-09-01T16:11:52;27.30;83.20
19037;DHT22;9651;49.138;8.900;2022-09-01T16:16:04;27.60;83.50
19037;DHT22;9651;49.138;8.900;2022-09-01T16:20:12;27.70;83.60
19037;DHT22;9651;49.138;8.900;2022-09-01T16:24:15;27.60;83.70
19037;DHT22;9651;49.138;8.900;2022-09-01T16:28:25;27.00;84.80
19037;DHT22;9651;49.138;8.900;2022-09-01T16:32:27;26.80;86.00
19037;DHT22;9651;49.138;8.900;2022-09-01T16:36:35;26.60;85.40
19037;DHT22;9651;49.138;8.900;2022-09-01T16:40:44;26.30;86.10
19037;DHT22;9651;49.138;8.900;2022-09-01T16:45:03;26.20;86.40
19037;DHT22;9651;49.138;8.900;2022-09-01T16:49:16;25.90;85.80
19037;DHT22;9651;49.138;8.900;2022-09-01T16:53:33;25.30;87.20
19037;DHT22;9651;49.138;8.900;2022-09-01T16:57:45;24.80;87.30
19037;DHT22;9651;49.138;8.900;2022-09-01T17:01:59;24.30;86.80
19037;DHT22;9651;49.138;8.900;2022-09-01T17:06:15;24.00;86.50
19037;DHT22;9651;49.138;8.900;2022-09-01T17:10:31;23.80;87.10
19037;DHT22;9651;49.138;8.900;2022-09-01T17:14:37;23.60;87.90
19037;DHT22;9651;49.138;8.900;2022-09-01T17:18:45;23.60;88.20
19037;DHT22;9651;49.138;8.900;2022-09-01T17:22:49;23.40;87.10
19037;DHT22;9651;49.138;8.900;2022-09-01T17:26:52;23.40;87.10
19037;DHT22;9651;49.138;8.900;2022-09-01T17:31:02;23.30;87.60
19037;DHT22;9651;49.138;8.900;2022-09-01T17:35:12;23.20;88.40
19037;DHT22;9651;49.138;8.900;2022-09-01T17:39:26;23.00;89.00
19037;DHT22;9651;49.138;8.900;2022-09-01T17:43:38;23.00;89.70
19037;DHT22;9651;49.138;8.900;2022-09-01T17:47:54;22.90;90.30
19037;DHT22;9651;49.138;8.900;2022-09-01T17:52:05;22.70;90.70
19037;DHT22;9651;49.138;8.900;2022-09-01T17:56:24;22.60;91.10
19037;DHT22;9651;49.138;8.900;2022-09-01T18:00:33;22.50;91.50
19037;DHT22;9651;49.138;8.900;2022-09-01T18:05:01;22.40;91.70
19037;DHT22;9651;49.138;8.900;2022-09-01T18:09:06;22.30;91.80
19037;DHT22;9651;49.138;8.900;2022-09-01T18:13:15;22.20;92.00
19037;DHT22;9651;49.138;8.900;2022-09-01T18:17:26;22.10;92.20
19037;DHT22;9651;49.138;8.900;2022-09-01T18:21:34;22.00;92.30
19037;DHT22;9651;49.138;8.900;2022-09-01T18:25:40;21.90;92.50
19037;DHT22;9651;49.138;8.900;2022-09-01T18:29:42;21.80;92.50
19037;DHT22;9651;49.138;8.900;2022-09-01T18:33:52;21.70;92.60
19037;DHT22;9651;49.138;8.900;2022-09-01T18:38:16;21.70;92.60
19037;DHT22;9651;49.138;8.900;2022-09-01T18:42:28;21.70;92.50
19037;DHT22;9651;49.138;8.900;2022-09-01T18:46:36;21.70;92.50
19037;DHT22;9651;49.138;8.900;2022-09-01T18:50:44;21.60;92.50
19037;DHT22;9651;49.138;8.900;2022-09-01T18:54:55;21.60;93.00
19037;DHT22;9651;49.138;8.900;2022-09-01T18:59:12;21.50;92.80
19037;DHT22;9651;49.138;8.900;2022-09-01T19:03:24;21.40;93.10
19037;DHT22;9651;49.138;8.900;2022-09-01T19:07:37;21.40;93.40
19037;DHT22;9651;49.138;8.900;2022-09-01T19:11:58;21.30;93.60
19037;DHT22;9651;49.138;8.900;2022-09-01T19:16:10;21.30;93.90
19037;DHT22;9651;49.138;8.900;2022-09-01T19:20:17;21.20;94.10
19037;DHT22;9651;49.138;8.900;2022-09-01T19:24:26;21.20;94.40
19037;DHT22;9651;49.138;8.900;2022-09-01T19:28:35;21.00;94.70
19037;DHT22;9651;49.138;8.900;2022-09-01T19:32:40;20.90;94.90
19037;DHT22;9651;49.138;8.900;2022-09-01T19:36:46;20.80;95.30
19037;DHT22;9651;49.138;8.900;2022-09-01T19:40:51;20.80;95.70
19037;DHT22;9651;49.138;8.900;2022-09-01T19:44:59;20.80;95.70
19037;DHT22;9651;49.138;8.900;2022-09-01T19:49:12;20.80;95.90
19037;DHT22;9651;49.138;8.900;2022-09-01T19:53:29;20.70;96.00
19037;DHT22;9651;49.138;8.900;2022-09-01T19:57:37;20.70;96.30
19037;DHT22;9651;49.138;8.900;2022-09-01T20:01:45;20.60;96.30
19037;DHT22;9651;49.138;8.900;2022-09-01T20:05:53;20.50;96.40
19037;DHT22;9651;49.138;8.900;2022-09-01T20:10:01;20.40;96.70
19037;DHT22;9651;49.138;8.900;2022-09-01T20:14:11;20.40;96.90
19037;DHT22;9651;49.138;8.900;2022-09-01T20:18:20;20.30;97.40
19037;DHT22;9651;49.138;8.900;2022-09-01T20:22:31;20.30;97.80
19037;DHT22;9651;49.138;8.900;2022-09-01T20:26:41;20.20;98.20
19037;DHT22;9651;49.138;8.900;2022-09-01T20:30:45;20.10;98.60
19037;DHT22;9651;49.138;8.900;2022-09-01T20:34:53;20.00;99.10
19037;DHT22;9651;49.138;8.900;2022-09-01T20:39:02;19.90;99.70
19037;DHT22;9651;49.138;8.900;2022-09-01T20:43:24;19.70;99.90
19037;DHT22;9651;49.138;8.900;2022-09-01T20:47:28;19.40;99.90
19037;DHT22;9651;49.138;8.900;2022-09-01T20:51:40;19.20;99.90
19037;DHT22;9651;49.138;8.900;2022-09-01T20:55:48;19.00;99.90
19037;DHT22;9651;49.138;8.900;2022-09-01T20:59:54;18.90;99.90
19037;DHT22;9651;49.138;8.900;2022-09-01T21:04:03;18.90;99.90
19037;DHT22;9651;49.138;8.900;2022-09-01T21:08:18;18.80;99.90
19037;DHT22;9651;49.138;8.900;2022-09-01T21:12:32;18.80;99.90
19037;DHT22;9651;49.138;8.900;2022-09-01T21:16:42;18.70;99.90
19037;DHT22;9651;49.138;8.900;2022-09-01T21:20:53;18.70;99.90
19037;DHT22;9651;49.138;8.900;2022-09-01T21:24:57;18.60;99.90
19037;DHT22;9651;49.138;8.900;2022-09-01T21:29:08;18.50;99.90
19037;DHT22;9651;49.138;8.900;2022-09-01T21:33:13;18.40;99.90
19037;DHT22;9651;49.138;8.900;2022-09-01T21:37:15;18.40;99.90
19037;DHT22;9651;49.138;8.900;2022-09-01T21:41:17;18.30;99.90
19037;DHT22;9651;49.138;8.900;2022-09-01T21:45:21;18.00;99.90
19037;DHT22;9651;49.138;8.900;2022-09-01T21:49:24;17.80;99.90
19037;DHT22;9651;49.138;8.900;2022-09-01T21:53:25;17.50;99.90
19037;DHT22;9651;49.138;8.900;2022-09-01T21:57:28;17.40;99.90
19037;DHT22;9651;49.138;8.900;2022-09-01T22:01:34;17.40;99.90
19037;DHT22;9651;49.138;8.900;2022-09-01T22:05:37;17.30;99.90
19037;DHT22;9651;49.138;8.900;2022-09-01T22:09:41;17.10;99.90
19037;DHT22;9651;49.138;8.900;2022-09-01T22:13:43;17.10;99.90
19037;DHT22;9651;49.138;8.900;2022-09-01T22:17:47;17.00;99.90
19037;DHT22;9651;49.138;8.900;2022-09-01T22:21:49;17.00;99.90
19037;DHT22;9651;49.138;8.900;2022-09-01T22:25:51;16.90;99.90
19037;DHT22;9651;49.138;8.900;2022-09-01T22:29:53;16.90;99.90
19037;DHT22;9651;49.138;8.900;2022-09-01T22:33:56;16.80;99.90
19037;DHT22;9651;49.138;8.900;2022-09-01T22:37:59;16.80;99.90
19037;DHT22;9651;49.138;8.900;2022-09-01T22:42:01;16.80;99.90
19037;DHT22;9651;49.138;8.900;2022-09-01T22:46:04;16.90;99.90
19037;DHT22;9651;49.138;8.900;2022-09-01T22:50:09;17.00;99.90
19037;DHT22;9651;49.138;8.900;2022-09-01T22:54:11;17.00;99.90
19037;DHT22;9651;49.138;8.900;2022-09-01T22:58:14;17.10;99.90
19037;DHT22;9651;49.138;8.900;2022-09-01T23:02:16;17.10;99.90
19037;DHT22;9651;49.138;8.900;2022-09-01T23:06:21;17.10;99.90
19037;DHT22;9651;49.138;8.900;2022-09-01T23:10:24;17.10;99.90
19037;DHT22;9651;49.138;8.900;2022-09-01T23:14:26;17.00;99.90
19037;DHT22;9651;49.138;8.900;2022-09-01T23:18:29;17.00;99.90
19037;DHT22;9651;49.138;8.900;2022-09-01T23:22:33;17.00;99.90
19037;DHT22;9651;49.138;8.900;2022-09-01T23:26:35;16.90;99.90
19037;DHT22;9651;49.138;8.900;2022-09-01T23:30:39;16.80;99.90
19037;DHT22;9651;49.138;8.900;2022-09-01T23:34:42;16.80;99.90
19037;DHT22;9651;49.138;8.900;2022-09-01T23:38:46;16.70;99.90
19037;DHT22;9651;49.138;8.900;2022-09-01T23:42:48;16.80;99.90
19037;DHT22;9651;49.138;8.900;2022-09-01T23:46:50;16.70;99.90
19037;DHT22;9651;49.138;8.900;2022-09-01T23:50:54;16.70;99.90
19037;DHT22;9651;49.138;8.900;2022-09-01T23:54:58;16.70;99.90
19037;DHT22;9651;49.138;8.900;2022-09-01T23:59:00;16.70;99.90
